createdAt,value
2018-05-21T00:00:10.310Z,99.99
2018-05-21T00:01:10.354Z,99.99
2018-05-21T00:02:10.355Z,99.99
2018-05-21T00:03:10.349Z,99.99
2018-05-21T00:04:10.483Z,99.99
2018-05-21T00:05:10.418Z,99.99
2018-05-21T00:06:10.422Z,99.99
2018-05-21T00:07:10.361Z,99.99
2018-05-21T00:08:10.424Z,99.99
2018-05-21T00:09:10.422Z,99.99
2018-05-21T00:10:10.424Z,99.99
2018-05-21T00:11:10.391Z,99.99
2018-05-21T00:12:10.389Z,99.99
2018-05-21T00:13:10.386Z,99.99
2018-05-21T00:14:10.345Z,99.99
2018-05-21T00:15:10.448Z,99.99
2018-05-21T00:16:10.388Z,99.99
2018-05-21T00:17:10.457Z,99.99
2018-05-21T00:18:10.426Z,99.99
2018-05-21T00:19:10.471Z,99.99
2018-05-21T00:20:10.445Z,99.99
2018-05-21T00:21:10.369Z,99.99
2018-05-21T00:22:10.420Z,99.99
2018-05-21T00:23:10.306Z,99.99
2018-05-21T00:24:10.360Z,99.99
2018-05-21T00:25:10.362Z,99.99
2018-05-21T00:26:10.422Z,99.99
2018-05-21T00:27:10.333Z,99.99
2018-05-21T00:28:10.365Z,99.99
2018-05-21T00:29:10.396Z,99.99
2018-05-21T00:30:10.390Z,99.99
2018-05-21T00:31:10.405Z,99.99
2018-05-21T00:32:10.469Z,99.99
2018-05-21T00:33:10.391Z,99.99
2018-05-21T00:34:10.452Z,99.99
2018-05-21T00:35:10.409Z,99.99
2018-05-21T00:36:10.379Z,99.99
2018-05-21T00:37:10.443Z,99.99
2018-05-21T00:38:10.420Z,99.99
2018-05-21T00:39:10.467Z,99.99
2018-05-21T00:40:10.363Z,99.99
2018-05-21T00:41:10.470Z,99.99
2018-05-21T00:42:10.468Z,99.99
2018-05-21T00:43:10.467Z,99.99
2018-05-21T00:44:10.446Z,99.99
2018-05-21T00:45:10.420Z,99.99
2018-05-21T00:46:10.419Z,99.99
2018-05-21T00:47:10.422Z,99.99
2018-05-21T00:48:10.515Z,99.99
2018-05-21T00:49:10.425Z,99.99
2018-05-21T00:50:10.488Z,99.99
2018-05-21T00:51:10.448Z,99.99
2018-05-21T00:52:10.448Z,99.99
2018-05-21T00:53:10.451Z,99.99
2018-05-21T00:54:10.387Z,99.99
2018-05-21T00:55:10.453Z,99.99
2018-05-21T00:56:10.451Z,99.99
2018-05-21T00:57:10.425Z,99.99
2018-05-21T00:58:10.391Z,99.99
2018-05-21T00:59:10.457Z,99.99
2018-05-21T01:00:10.392Z,99.99
2018-05-21T01:01:10.458Z,99.99
2018-05-21T01:02:10.462Z,99.99
2018-05-21T01:03:10.466Z,99.99
2018-05-21T01:04:10.457Z,99.99
2018-05-21T01:05:10.458Z,99.99
2018-05-21T01:06:10.397Z,99.99
2018-05-21T01:07:10.459Z,99.99
2018-05-21T01:08:10.462Z,99.99
2018-05-21T01:09:10.466Z,99.99
2018-05-21T01:10:10.431Z,99.99
2018-05-21T01:11:10.485Z,99.99
2018-05-21T01:12:10.503Z,99.99
2018-05-21T01:13:10.440Z,99.99
2018-05-21T01:14:10.426Z,99.99
2018-05-21T01:15:10.364Z,99.99
2018-05-21T01:16:10.453Z,99.99
2018-05-21T01:17:10.441Z,99.99
2018-05-21T01:18:10.411Z,99.99
2018-05-21T01:19:10.392Z,99.99
2018-05-21T01:20:10.435Z,99.99
2018-05-21T01:21:10.470Z,99.99
2018-05-21T01:22:10.469Z,99.99
2018-05-21T01:23:10.408Z,99.99
2018-05-21T01:24:10.471Z,99.99
2018-05-21T01:25:10.409Z,99.99
2018-05-21T01:26:10.439Z,99.99
2018-05-21T01:27:10.412Z,99.99
2018-05-21T01:28:10.418Z,99.99
2018-05-21T01:29:10.476Z,99.99
2018-05-21T01:30:10.480Z,99.99
2018-05-21T01:31:10.415Z,99.99
2018-05-21T01:32:10.449Z,99.99
2018-05-21T01:33:10.436Z,99.99
2018-05-21T01:34:10.477Z,99.99
2018-05-21T01:35:10.431Z,99.99
2018-05-21T01:36:10.498Z,99.99
2018-05-21T01:37:10.403Z,99.99
2018-05-21T01:38:10.479Z,99.99
2018-05-21T01:39:10.443Z,99.99
2018-05-21T01:40:10.413Z,99.99
2018-05-21T01:41:10.459Z,99.99
2018-05-21T01:42:10.414Z,99.99
2018-05-21T01:43:10.486Z,99.99
2018-05-21T01:44:10.420Z,99.99
2018-05-21T01:45:10.369Z,99.99
2018-05-21T01:46:10.426Z,99.99
2018-05-21T01:47:10.499Z,99.99
2018-05-21T01:48:10.422Z,99.99
2018-05-21T01:49:10.494Z,99.99
2018-05-21T01:50:10.509Z,99.99
2018-05-21T01:51:10.424Z,99.99
2018-05-21T01:52:10.395Z,99.99
2018-05-21T01:53:10.491Z,99.99
2018-05-21T01:54:10.512Z,99.99
2018-05-21T01:55:10.454Z,99.99
2018-05-21T01:56:10.491Z,99.99
2018-05-21T01:57:10.410Z,99.99
2018-05-21T01:58:10.391Z,99.99
2018-05-21T01:59:10.398Z,99.99
2018-05-21T02:00:10.492Z,99.99
2018-05-21T02:01:10.473Z,99.99
2018-05-21T02:02:10.417Z,99.99
2018-05-21T02:03:10.457Z,99.99
2018-05-21T02:04:10.498Z,99.99
2018-05-21T02:05:10.530Z,99.99
2018-05-21T02:06:10.423Z,99.99
2018-05-21T02:07:10.524Z,99.99
2018-05-21T02:08:10.414Z,99.99
2018-05-21T02:09:10.400Z,99.99
2018-05-21T02:10:10.478Z,99.99
2018-05-21T02:11:10.476Z,99.99
2018-05-21T02:12:10.481Z,99.99
2018-05-21T02:13:10.487Z,99.99
2018-05-21T02:14:10.512Z,99.99
2018-05-21T02:15:10.543Z,99.99
2018-05-21T02:16:10.427Z,99.99
2018-05-21T02:17:10.411Z,99.99
2018-05-21T02:18:10.508Z,99.99
2018-05-21T02:19:10.513Z,99.99
2018-05-21T02:20:10.488Z,99.99
2018-05-21T02:21:10.482Z,99.99
2018-05-21T02:22:10.513Z,99.99
2018-05-21T02:23:10.449Z,99.99
2018-05-21T02:24:10.507Z,99.99
2018-05-21T02:25:10.517Z,99.99
2018-05-21T02:26:10.444Z,99.99
2018-05-21T02:27:10.511Z,99.99
2018-05-21T02:28:10.519Z,99.99
2018-05-21T02:29:10.517Z,99.99
2018-05-21T02:30:10.516Z,99.99
2018-05-21T02:31:10.455Z,99.99
2018-05-21T02:32:10.484Z,99.99
2018-05-21T02:33:10.455Z,99.99
2018-05-21T02:34:10.519Z,99.99
2018-05-21T02:35:10.464Z,99.99
2018-05-21T02:36:10.517Z,99.99
2018-05-21T02:37:10.454Z,99.99
2018-05-21T02:38:10.454Z,99.99
2018-05-21T02:39:10.522Z,99.99
2018-05-21T02:40:10.514Z,99.99
2018-05-21T02:41:10.538Z,99.99
2018-05-21T02:42:10.503Z,99.99
2018-05-21T02:43:10.547Z,99.99
2018-05-21T02:44:10.502Z,99.99
2018-05-21T02:45:10.563Z,99.99
2018-05-21T02:46:10.422Z,99.99
2018-05-21T02:47:10.525Z,99.99
2018-05-21T02:48:10.450Z,99.99
2018-05-21T02:49:10.492Z,99.99
2018-05-21T02:50:10.484Z,99.99
2018-05-21T02:51:10.484Z,99.99
2018-05-21T02:52:10.524Z,99.99
2018-05-21T02:53:10.452Z,99.99
2018-05-21T02:54:10.530Z,99.99
2018-05-21T02:55:10.548Z,99.99
2018-05-21T02:56:10.506Z,99.99
2018-05-21T02:57:10.435Z,99.99
2018-05-21T02:58:10.439Z,99.99
2018-05-21T02:59:10.440Z,99.99
2018-05-21T03:00:10.503Z,99.99
2018-05-21T03:01:10.491Z,99.99
2018-05-21T03:02:10.488Z,99.99
2018-05-21T03:03:10.535Z,99.99
2018-05-21T03:04:10.537Z,99.99
2018-05-21T03:05:10.535Z,99.99
2018-05-21T03:06:10.497Z,99.99
2018-05-21T03:07:10.437Z,99.99
2018-05-21T03:08:10.451Z,99.99
2018-05-21T03:09:10.505Z,99.99
2018-05-21T03:10:10.566Z,99.99
2018-05-21T03:11:10.588Z,99.99
2018-05-21T03:12:10.446Z,99.99
2018-05-21T03:13:10.559Z,99.99
2018-05-21T03:14:10.521Z,99.99
2018-05-21T03:15:10.558Z,99.99
2018-05-21T03:16:10.549Z,99.99
2018-05-21T03:17:10.563Z,99.99
2018-05-21T03:18:10.569Z,99.99
2018-05-21T03:19:10.548Z,99.99
2018-05-21T03:20:10.470Z,99.99
2018-05-21T03:21:10.590Z,99.99
2018-05-21T03:22:10.522Z,99.99
2018-05-21T03:23:10.501Z,99.99
2018-05-21T03:24:10.489Z,99.99
2018-05-21T03:25:10.549Z,99.99
2018-05-21T03:26:10.486Z,99.99
2018-05-21T03:27:10.551Z,99.99
2018-05-21T03:28:10.511Z,99.99
2018-05-21T03:29:10.580Z,99.99
2018-05-21T03:30:10.530Z,99.99
2018-05-21T03:31:10.569Z,99.99
2018-05-21T03:32:10.454Z,99.99
2018-05-21T03:33:10.525Z,99.99
2018-05-21T03:34:10.476Z,99.99
2018-05-21T03:35:10.460Z,99.99
2018-05-21T03:36:10.534Z,99.99
2018-05-21T03:37:10.595Z,99.99
2018-05-21T03:38:10.498Z,99.99
2018-05-21T03:39:10.514Z,99.99
2018-05-21T03:40:10.580Z,99.99
2018-05-21T03:41:10.555Z,99.99
2018-05-21T03:42:10.558Z,99.99
2018-05-21T03:43:10.537Z,99.99
2018-05-21T03:44:10.561Z,99.99
2018-05-21T03:45:10.606Z,99.99
2018-05-21T03:46:10.579Z,99.99
2018-05-21T03:47:10.538Z,99.99
2018-05-21T03:48:10.582Z,99.99
2018-05-21T03:49:10.525Z,99.99
2018-05-21T03:50:10.489Z,99.99
2018-05-21T03:51:10.565Z,99.99
2018-05-21T03:52:10.534Z,99.99
2018-05-21T03:53:10.563Z,99.99
2018-05-21T03:54:10.470Z,99.99
2018-05-21T03:55:10.534Z,99.99
2018-05-21T03:56:10.470Z,99.99
2018-05-21T03:57:10.566Z,99.99
2018-05-21T03:58:10.542Z,99.99
2018-05-21T03:59:10.603Z,99.99
2018-05-21T04:00:10.593Z,99.99
2018-05-21T04:01:10.526Z,99.99
2018-05-21T04:02:10.517Z,99.99
2018-05-21T04:03:10.431Z,99.99
2018-05-21T04:04:10.438Z,99.99
2018-05-21T04:05:10.475Z,99.99
2018-05-21T04:06:10.474Z,99.99
2018-05-21T04:07:10.473Z,99.99
2018-05-21T04:08:10.471Z,99.99
2018-05-21T04:09:10.524Z,99.99
2018-05-21T04:10:10.463Z,99.99
2018-05-21T04:11:10.589Z,99.99
2018-05-21T04:12:10.562Z,99.99
2018-05-21T04:13:10.598Z,99.99
2018-05-21T04:14:10.605Z,99.99
2018-05-21T04:15:10.583Z,99.99
2018-05-21T04:16:10.610Z,99.99
2018-05-21T04:17:10.541Z,99.99
2018-05-21T04:18:10.582Z,99.99
2018-05-21T04:19:10.606Z,99.99
2018-05-21T04:20:10.616Z,99.99
2018-05-21T04:21:10.485Z,99.99
2018-05-21T04:22:10.472Z,99.99
2018-05-21T04:23:10.577Z,99.99
2018-05-21T04:24:10.580Z,99.99
2018-05-21T04:25:10.576Z,99.99
2018-05-21T04:26:10.494Z,99.99
2018-05-21T04:27:10.587Z,99.99
2018-05-21T04:28:10.609Z,99.99
2018-05-21T04:29:10.489Z,99.99
2018-05-21T04:30:10.591Z,99.99
2018-05-21T04:31:10.587Z,99.99
2018-05-21T04:32:10.621Z,99.99
2018-05-21T04:33:10.494Z,99.99
2018-05-21T04:34:10.572Z,99.99
2018-05-21T04:35:10.620Z,99.99
2018-05-21T04:36:10.619Z,99.99
2018-05-21T04:37:10.495Z,99.99
2018-05-21T04:38:10.619Z,99.99
2018-05-21T04:39:10.635Z,99.99
2018-05-21T04:40:10.494Z,99.99
2018-05-21T04:41:10.554Z,99.99
2018-05-21T04:42:10.594Z,99.99
2018-05-21T04:43:10.559Z,99.99
2018-05-21T04:44:10.580Z,99.99
2018-05-21T04:45:10.602Z,99.99
2018-05-21T04:46:10.555Z,99.99
2018-05-21T04:47:10.508Z,99.99
2018-05-21T04:48:10.520Z,99.99
2018-05-21T04:49:10.575Z,99.99
2018-05-21T04:50:10.540Z,99.99
2018-05-21T04:51:10.603Z,99.99
2018-05-21T04:52:10.634Z,99.99
2018-05-21T04:53:10.696Z,99.99
2018-05-21T04:54:10.639Z,99.99
2018-05-21T04:55:10.570Z,99.99
2018-05-21T04:56:10.627Z,99.99
2018-05-21T04:57:10.578Z,99.99
2018-05-21T04:58:10.575Z,99.99
2018-05-21T04:59:10.631Z,99.99
2018-05-21T05:00:10.588Z,99.99
2018-05-21T05:01:10.586Z,99.99
2018-05-21T05:02:10.635Z,99.99
2018-05-21T05:03:10.570Z,99.99
2018-05-21T05:04:10.518Z,99.99
2018-05-21T05:05:10.647Z,99.99
2018-05-21T05:06:10.581Z,99.99
2018-05-21T05:07:10.668Z,99.99
2018-05-21T05:08:10.574Z,99.99
2018-05-21T05:09:10.588Z,99.99
2018-05-21T05:10:10.540Z,99.99
2018-05-21T05:11:10.544Z,99.99
2018-05-21T05:12:10.557Z,99.99
2018-05-21T05:13:10.614Z,99.99
2018-05-21T05:14:10.502Z,99.99
2018-05-21T05:15:10.489Z,99.99
2018-05-21T05:16:10.562Z,99.99
2018-05-21T05:17:10.559Z,99.99
2018-05-21T05:18:10.604Z,99.99
2018-05-21T05:19:10.606Z,99.99
2018-05-21T05:20:10.529Z,99.99
2018-05-21T05:21:10.670Z,99.99
2018-05-21T05:22:10.522Z,99.99
2018-05-21T05:23:10.567Z,98.94
2018-05-21T05:24:10.480Z,98.21
2018-05-21T05:25:10.633Z,97.21
2018-05-21T05:26:10.553Z,96.83
2018-05-21T05:27:10.526Z,96.77
2018-05-21T05:28:10.480Z,96.17
2018-05-21T05:29:10.560Z,95.69
2018-05-21T05:30:10.578Z,95.69
2018-05-21T05:31:10.510Z,95.50
2018-05-21T05:32:10.563Z,94.91
2018-05-21T05:33:10.631Z,94.37
2018-05-21T05:34:10.574Z,93.29
2018-05-21T05:35:10.566Z,92.43
2018-05-21T05:36:10.564Z,91.38
2018-05-21T05:37:10.564Z,90.58
2018-05-21T05:38:10.567Z,88.89
2018-05-21T05:39:10.634Z,88.39
2018-05-21T05:40:10.569Z,86.63
2018-05-21T05:41:10.635Z,85.96
2018-05-21T05:42:10.741Z,84.09
2018-05-21T05:43:10.576Z,83.67
2018-05-21T05:44:10.639Z,83.14
2018-05-21T05:45:10.639Z,81.74
2018-05-21T05:46:10.577Z,80.52
2018-05-21T05:47:10.574Z,79.05
2018-05-21T05:48:10.640Z,77.28
2018-05-21T05:49:10.572Z,75.81
2018-05-21T05:50:10.664Z,74.97
2018-05-21T05:51:10.578Z,74.29
2018-05-21T05:52:10.515Z,74.11
2018-05-21T05:53:10.619Z,72.12
2018-05-21T05:54:10.514Z,71.07
2018-05-21T05:55:10.627Z,70.71
2018-05-21T05:56:10.500Z,69.98
2018-05-21T05:57:10.627Z,70.14
2018-05-21T05:58:10.512Z,68.58
2018-05-21T05:59:10.521Z,68.40
2018-05-21T06:00:10.625Z,67.91
2018-05-21T06:01:10.605Z,67.54
2018-05-21T06:02:10.686Z,66.58
2018-05-21T06:03:10.683Z,68.14
2018-05-21T06:04:10.603Z,67.13
2018-05-21T06:05:10.557Z,67.46
2018-05-21T06:06:10.611Z,65.37
2018-05-21T06:07:10.629Z,65.26
2018-05-21T06:08:10.552Z,65.03
2018-05-21T06:09:10.622Z,64.26
2018-05-21T06:10:10.675Z,65.03
2018-05-21T06:11:10.732Z,65.81
2018-05-21T06:12:10.563Z,64.34
2018-05-21T06:13:10.600Z,64.26
2018-05-21T06:14:10.645Z,65.99
2018-05-21T06:15:10.564Z,63.74
2018-05-21T06:16:10.592Z,63.54
2018-05-21T06:17:10.543Z,62.07
2018-05-21T06:18:10.645Z,62.02
2018-05-21T06:19:10.653Z,62.71
2018-05-21T06:20:10.596Z,63.28
2018-05-21T06:21:10.644Z,62.63
2018-05-21T06:22:10.591Z,62.61
2018-05-21T06:23:10.600Z,62.63
2018-05-21T06:24:10.662Z,62.25
2018-05-21T06:25:10.600Z,62.20
2018-05-21T06:26:10.665Z,61.76
2018-05-21T06:27:10.593Z,61.91
2018-05-21T06:28:10.663Z,61.20
2018-05-21T06:29:10.594Z,61.58
2018-05-21T06:30:10.672Z,60.89
2018-05-21T06:31:10.604Z,60.33
2018-05-21T06:32:10.666Z,61.48
2018-05-21T06:33:10.669Z,61.25
2018-05-21T06:34:10.787Z,61.94
2018-05-21T06:35:10.604Z,60.61
2018-05-21T06:36:10.670Z,61.04
2018-05-21T06:37:10.609Z,61.27
2018-05-21T06:38:10.673Z,60.48
2018-05-21T06:39:10.606Z,61.04
2018-05-21T06:40:10.671Z,61.25
2018-05-21T06:41:10.681Z,60.73
2018-05-21T06:42:10.663Z,60.40
2018-05-21T06:43:10.673Z,60.25
2018-05-21T06:44:10.602Z,60.12
2018-05-21T06:45:10.610Z,60.91
2018-05-21T06:46:10.675Z,58.68
2018-05-21T06:47:10.565Z,59.28
2018-05-21T06:48:10.614Z,59.94
2018-05-21T06:49:10.582Z,59.40
2018-05-21T06:50:10.566Z,59.78
2018-05-21T06:51:10.670Z,59.45
2018-05-21T06:52:10.686Z,59.71
2018-05-21T06:53:10.683Z,58.76
2018-05-21T06:54:10.614Z,59.32
2018-05-21T06:55:10.616Z,59.04
2018-05-21T06:56:10.685Z,58.43
2018-05-21T06:57:10.622Z,58.76
2018-05-21T06:58:10.703Z,59.84
2018-05-21T06:59:10.644Z,58.71
2018-05-21T07:00:10.619Z,58.04
2018-05-21T07:01:10.613Z,57.23
2018-05-21T07:02:10.708Z,57.71
2018-05-21T07:03:10.658Z,57.10
2018-05-21T07:04:10.766Z,57.26
2018-05-21T07:05:10.728Z,56.29
2018-05-21T07:06:10.668Z,57.66
2018-05-21T07:07:10.650Z,57.33
2018-05-21T07:08:10.692Z,57.08
2018-05-21T07:09:10.710Z,56.00
2018-05-21T07:10:10.669Z,54.33
2018-05-21T07:11:10.768Z,54.73
2018-05-21T07:12:10.629Z,54.68
2018-05-21T07:13:10.695Z,54.15
2018-05-21T07:14:10.693Z,54.94
2018-05-21T07:15:10.696Z,54.25
2018-05-21T07:16:10.696Z,52.65
2018-05-21T07:17:10.695Z,53.18
2018-05-21T07:18:10.719Z,54.10
2018-05-21T07:19:10.698Z,54.12
2018-05-21T07:20:10.632Z,54.68
2018-05-21T07:21:10.703Z,54.28
2018-05-21T07:22:10.703Z,56.08
2018-05-21T07:23:10.699Z,55.57
2018-05-21T07:24:10.665Z,55.57
2018-05-21T07:25:10.646Z,56.13
2018-05-21T07:26:10.639Z,55.55
2018-05-21T07:27:10.704Z,53.90
2018-05-21T07:28:10.704Z,53.31
2018-05-21T07:29:10.708Z,53.97
2018-05-21T07:30:10.636Z,55.91
2018-05-21T07:31:10.641Z,54.48
2018-05-21T07:32:10.711Z,54.20
2018-05-21T07:33:10.684Z,54.08
2018-05-21T07:34:10.730Z,54.91
2018-05-21T07:35:10.723Z,53.62
2018-05-21T07:36:10.734Z,52.68
2018-05-21T07:37:10.608Z,53.21
2018-05-21T07:38:10.683Z,52.83
2018-05-21T07:39:10.617Z,54.94
2018-05-21T07:40:10.685Z,53.69
2018-05-21T07:41:10.733Z,53.18
2018-05-21T07:42:10.680Z,52.60
2018-05-21T07:43:10.716Z,53.01
2018-05-21T07:44:10.620Z,52.88
2018-05-21T07:45:10.685Z,51.97
2018-05-21T07:46:10.754Z,52.45
2018-05-21T07:47:10.750Z,52.04
2018-05-21T07:48:10.636Z,53.75
2018-05-21T07:49:10.676Z,52.15
2018-05-21T07:50:10.622Z,51.95
2018-05-21T07:51:10.698Z,53.56
2018-05-21T07:52:10.721Z,53.82
2018-05-21T07:53:10.585Z,52.57
2018-05-21T07:54:10.629Z,52.63
2018-05-21T07:55:10.706Z,51.79
2018-05-21T07:56:10.710Z,51.13
2018-05-21T07:57:10.711Z,51.54
2018-05-21T07:58:10.695Z,50.78
2018-05-21T07:59:10.722Z,50.45
2018-05-21T08:00:10.701Z,49.37
2018-05-21T08:01:10.591Z,49.87
2018-05-21T08:02:10.652Z,49.67
2018-05-21T08:03:10.673Z,48.86
2018-05-21T08:04:10.662Z,50.60
2018-05-21T08:05:10.686Z,50.66
2018-05-21T08:06:10.733Z,50.18
2018-05-21T08:07:10.741Z,50.27
2018-05-21T08:08:10.732Z,50.10
2018-05-21T08:09:10.737Z,50.60
2018-05-21T08:10:10.668Z,49.55
2018-05-21T08:11:10.736Z,49.34
2018-05-21T08:12:10.674Z,49.27
2018-05-21T08:13:10.731Z,49.22
2018-05-21T08:14:10.734Z,50.10
2018-05-21T08:15:10.736Z,49.72
2018-05-21T08:16:10.672Z,48.41
2018-05-21T08:17:10.664Z,49.87
2018-05-21T08:18:10.669Z,49.90
2018-05-21T08:19:10.702Z,48.59
2018-05-21T08:20:10.685Z,48.97
2018-05-21T08:21:10.738Z,49.80
2018-05-21T08:22:10.751Z,50.00
2018-05-21T08:23:10.716Z,49.17
2018-05-21T08:24:10.843Z,47.88
2018-05-21T08:25:10.780Z,48.14
2018-05-21T08:26:10.706Z,48.31
2018-05-21T08:27:10.752Z,47.08
2018-05-21T08:28:10.716Z,46.95
2018-05-21T08:29:10.726Z,48.48
2018-05-21T08:30:10.744Z,47.13
2018-05-21T08:31:10.728Z,47.88
2018-05-21T08:32:10.651Z,47.58
2018-05-21T08:33:10.782Z,47.86
2018-05-21T08:34:10.874Z,46.40
2018-05-21T08:35:10.711Z,47.31
2018-05-21T08:36:10.775Z,46.38
2018-05-21T08:37:10.780Z,46.40
2018-05-21T08:38:10.727Z,45.65
2018-05-21T08:39:10.724Z,46.12
2018-05-21T08:40:10.659Z,46.55
2018-05-21T08:41:10.773Z,47.61
2018-05-21T08:42:10.722Z,45.95
2018-05-21T08:43:10.708Z,45.35
2018-05-21T08:44:10.717Z,46.18
2018-05-21T08:45:10.688Z,45.55
2018-05-21T08:46:10.752Z,44.85
2018-05-21T08:47:10.791Z,44.80
2018-05-21T08:48:10.710Z,46.58
2018-05-21T08:49:10.712Z,46.45
2018-05-21T08:50:10.776Z,46.38
2018-05-21T08:51:10.714Z,45.70
2018-05-21T08:52:10.739Z,45.15
2018-05-21T08:53:10.757Z,45.07
2018-05-21T08:54:10.693Z,45.62
2018-05-21T08:55:10.812Z,46.23
2018-05-21T08:56:10.824Z,45.18
2018-05-21T08:57:10.762Z,45.45
2018-05-21T08:58:10.760Z,45.02
2018-05-21T08:59:10.730Z,47.00
2018-05-21T09:00:10.761Z,44.47
2018-05-21T09:01:10.757Z,46.45
2018-05-21T09:02:10.761Z,47.38
2018-05-21T09:03:10.773Z,45.98
2018-05-21T09:04:10.768Z,45.62
2018-05-21T09:05:10.743Z,46.60
2018-05-21T09:06:10.671Z,47.58
2018-05-21T09:07:10.737Z,45.02
2018-05-21T09:08:10.706Z,45.07
2018-05-21T09:09:10.746Z,45.52
2018-05-21T09:10:10.883Z,44.43
2018-05-21T09:11:10.789Z,44.57
2018-05-21T09:12:10.735Z,46.20
2018-05-21T09:13:10.754Z,46.98
2018-05-21T09:14:10.730Z,44.70
2018-05-21T09:15:10.815Z,46.50
2018-05-21T09:16:10.713Z,45.93
2018-05-21T09:17:10.811Z,47.88
2018-05-21T09:18:10.697Z,43.13
2018-05-21T09:19:10.743Z,43.95
2018-05-21T09:20:10.739Z,44.80
2018-05-21T09:21:10.800Z,44.15
2018-05-21T09:22:10.808Z,46.75
2018-05-21T09:23:10.743Z,42.95
2018-05-21T09:24:10.762Z,43.63
2018-05-21T09:25:10.734Z,42.23
2018-05-21T09:26:10.843Z,43.52
2018-05-21T09:27:10.689Z,43.30
2018-05-21T09:28:10.778Z,43.92
2018-05-21T09:29:10.691Z,40.34
2018-05-21T09:30:10.759Z,43.55
2018-05-21T09:31:10.693Z,43.40
2018-05-21T09:32:10.755Z,41.63
2018-05-21T09:33:10.785Z,43.55
2018-05-21T09:34:10.782Z,43.55
2018-05-21T09:35:10.729Z,42.53
2018-05-21T09:36:10.747Z,42.37
2018-05-21T09:37:10.815Z,41.98
2018-05-21T09:38:10.789Z,43.67
2018-05-21T09:39:10.789Z,44.02
2018-05-21T09:40:10.761Z,44.62
2018-05-21T09:41:10.793Z,44.07
2018-05-21T09:42:10.728Z,43.97
2018-05-21T09:43:10.781Z,44.17
2018-05-21T09:44:10.786Z,40.98
2018-05-21T09:45:10.787Z,42.58
2018-05-21T09:46:10.788Z,42.30
2018-05-21T09:47:10.783Z,42.60
2018-05-21T09:48:10.786Z,42.83
2018-05-21T09:49:10.700Z,41.03
2018-05-21T09:50:10.668Z,43.35
2018-05-21T09:51:10.788Z,43.35
2018-05-21T09:52:10.698Z,43.85
2018-05-21T09:53:10.799Z,42.60
2018-05-21T09:54:10.798Z,41.45
2018-05-21T09:55:10.806Z,39.49
2018-05-21T09:56:10.730Z,38.72
2018-05-21T09:57:10.806Z,40.21
2018-05-21T09:58:10.866Z,41.23
2018-05-21T09:59:10.801Z,42.12
2018-05-21T10:00:10.801Z,40.96
2018-05-21T10:01:10.742Z,40.93
2018-05-21T10:02:10.808Z,39.66
2018-05-21T10:03:10.708Z,41.13
2018-05-21T10:04:10.764Z,42.10
2018-05-21T10:05:10.835Z,41.06
2018-05-21T10:06:10.809Z,40.13
2018-05-21T10:07:10.788Z,40.11
2018-05-21T10:08:10.836Z,38.92
2018-05-21T10:09:10.767Z,38.23
2018-05-21T10:10:10.842Z,38.21
2018-05-21T10:11:10.787Z,40.88
2018-05-21T10:12:10.759Z,39.37
2018-05-21T10:13:10.792Z,39.29
2018-05-21T10:14:10.780Z,39.71
2018-05-21T10:15:10.835Z,38.18
2018-05-21T10:16:10.831Z,37.61
2018-05-21T10:17:10.852Z,39.24
2018-05-21T10:18:10.786Z,36.57
2018-05-21T10:19:10.841Z,37.74
2018-05-21T10:20:10.834Z,37.76
2018-05-21T10:21:10.725Z,37.29
2018-05-21T10:22:10.793Z,36.33
2018-05-21T10:23:10.818Z,35.07
2018-05-21T10:24:10.752Z,36.84
2018-05-21T10:25:10.821Z,36.28
2018-05-21T10:26:10.812Z,36.59
2018-05-21T10:27:10.757Z,36.37
2018-05-21T10:28:10.836Z,36.64
2018-05-21T10:29:10.831Z,36.03
2018-05-21T10:30:10.754Z,37.41
2018-05-21T10:31:10.828Z,39.12
2018-05-21T10:32:10.823Z,35.68
2018-05-21T10:33:10.831Z,35.61
2018-05-21T10:34:10.759Z,36.62
2018-05-21T10:35:10.758Z,39.87
2018-05-21T10:36:10.831Z,37.83
2018-05-21T10:37:10.787Z,37.91
2018-05-21T10:38:10.831Z,36.37
2018-05-21T10:39:10.828Z,38.23
2018-05-21T10:40:10.763Z,37.09
2018-05-21T10:41:10.831Z,37.06
2018-05-21T10:42:10.832Z,36.75
2018-05-21T10:43:10.867Z,39.29
2018-05-21T10:44:10.740Z,40.34
2018-05-21T10:45:10.872Z,36.84
2018-05-21T10:46:10.754Z,36.97
2018-05-21T10:47:10.861Z,36.94
2018-05-21T10:48:10.807Z,38.94
2018-05-21T10:49:10.865Z,37.39
2018-05-21T10:50:10.875Z,35.59
2018-05-21T10:51:10.807Z,36.92
2018-05-21T10:52:10.809Z,37.81
2018-05-21T10:53:10.837Z,37.04
2018-05-21T10:54:10.787Z,35.86
2018-05-21T10:55:10.769Z,34.65
2018-05-21T10:56:10.859Z,35.36
2018-05-21T10:57:10.840Z,33.08
2018-05-21T10:58:10.780Z,34.92
2018-05-21T10:59:10.840Z,35.90
2018-05-21T11:00:10.840Z,35.73
2018-05-21T11:01:10.777Z,35.46
2018-05-21T11:02:10.849Z,35.09
2018-05-21T11:03:10.768Z,37.63
2018-05-21T11:04:10.839Z,35.26
2018-05-21T11:05:10.862Z,34.52
2018-05-21T11:06:10.867Z,38.30
2018-05-21T11:07:10.883Z,35.51
2018-05-21T11:08:10.806Z,35.04
2018-05-21T11:09:10.886Z,35.76
2018-05-21T11:10:10.850Z,36.82
2018-05-21T11:11:10.785Z,35.59
2018-05-21T11:12:10.868Z,36.03
2018-05-21T11:13:10.852Z,36.40
2018-05-21T11:14:10.810Z,37.34
2018-05-21T11:15:10.874Z,36.64
2018-05-21T11:16:10.771Z,35.29
2018-05-21T11:17:10.850Z,33.96
2018-05-21T11:18:10.833Z,35.29
2018-05-21T11:19:10.792Z,34.18
2018-05-21T11:20:10.760Z,37.58
2018-05-21T11:21:10.778Z,34.52
2018-05-21T11:22:10.839Z,35.73
2018-05-21T11:23:10.821Z,36.59
2018-05-21T11:24:10.819Z,33.99
2018-05-21T11:25:10.886Z,36.84
2018-05-21T11:26:10.780Z,33.94
2018-05-21T11:27:10.800Z,35.66
2018-05-21T11:28:10.834Z,35.12
2018-05-21T11:29:10.894Z,33.81
2018-05-21T11:30:10.841Z,33.91
2018-05-21T11:31:10.830Z,34.80
2018-05-21T11:32:10.833Z,36.11
2018-05-21T11:33:10.864Z,33.44
2018-05-21T11:34:10.803Z,33.20
2018-05-21T11:35:10.799Z,33.08
2018-05-21T11:36:10.797Z,34.57
2018-05-21T11:37:10.862Z,33.96
2018-05-21T11:38:10.865Z,35.41
2018-05-21T11:39:10.881Z,33.84
2018-05-21T11:40:10.800Z,34.21
2018-05-21T11:41:10.805Z,34.48
2018-05-21T11:42:10.801Z,35.88
2018-05-21T11:43:10.775Z,36.08
2018-05-21T11:44:10.899Z,32.12
2018-05-21T11:45:10.680Z,35.49
2018-05-21T11:46:10.894Z,33.94
2018-05-21T11:47:10.913Z,33.52
2018-05-21T11:48:10.847Z,34.16
2018-05-21T11:49:10.847Z,33.69
2018-05-21T11:50:10.907Z,33.89
2018-05-21T11:51:10.853Z,34.40
2018-05-21T11:52:10.834Z,35.88
2018-05-21T11:53:10.857Z,34.45
2018-05-21T11:54:10.828Z,35.64
2018-05-21T11:55:10.774Z,34.33
2018-05-21T11:56:10.867Z,34.18
2018-05-21T11:57:10.829Z,34.73
2018-05-21T11:58:10.857Z,30.22
2018-05-21T11:59:10.812Z,33.22
2018-05-21T12:00:10.830Z,30.87
2018-05-21T12:01:10.854Z,35.19
2018-05-21T12:02:10.808Z,31.88
2018-05-21T12:03:10.911Z,32.93
2018-05-21T12:04:10.910Z,36.13
2018-05-21T12:05:10.880Z,32.02
2018-05-21T12:06:10.845Z,34.43
2018-05-21T12:07:10.850Z,32.36
2018-05-21T12:08:10.888Z,33.96
2018-05-21T12:09:10.911Z,32.12
2018-05-21T12:10:10.863Z,32.91
2018-05-21T12:11:10.790Z,32.22
2018-05-21T12:12:10.856Z,31.07
2018-05-21T12:13:10.794Z,31.12
2018-05-21T12:14:10.843Z,29.20
2018-05-21T12:15:10.887Z,29.95
2018-05-21T12:16:10.874Z,29.69
2018-05-21T12:17:10.880Z,30.48
2018-05-21T12:18:10.819Z,31.53
2018-05-21T12:19:10.772Z,36.67
2018-05-21T12:20:10.778Z,31.27
2018-05-21T12:21:10.827Z,30.26
2018-05-21T12:22:10.888Z,29.63
2018-05-21T12:23:10.795Z,33.00
2018-05-21T12:24:10.793Z,31.41
2018-05-21T12:25:10.872Z,33.37
2018-05-21T12:26:10.757Z,32.34
2018-05-21T12:27:10.852Z,30.70
2018-05-21T12:28:10.856Z,31.75
2018-05-21T12:29:10.789Z,32.34
2018-05-21T12:30:10.855Z,32.27
2018-05-21T12:31:10.760Z,28.96
2018-05-21T12:32:10.846Z,28.94
2018-05-21T12:33:10.893Z,30.58
2018-05-21T12:34:10.804Z,32.07
2018-05-21T12:35:10.893Z,32.14
2018-05-21T12:36:10.776Z,30.70
2018-05-21T12:37:10.901Z,31.29
2018-05-21T12:38:10.835Z,30.12
2018-05-21T12:39:10.845Z,31.29
2018-05-21T12:40:10.835Z,31.27
2018-05-21T12:41:10.900Z,30.04
2018-05-21T12:42:10.906Z,31.09
2018-05-21T12:43:10.895Z,28.90
2018-05-21T12:44:10.896Z,29.67
2018-05-21T12:45:10.840Z,28.43
2018-05-21T12:46:10.872Z,28.58
2018-05-21T12:47:10.861Z,28.40
2018-05-21T12:48:10.894Z,26.77
2018-05-21T12:49:10.898Z,27.26
2018-05-21T12:50:10.909Z,28.27
2018-05-21T12:51:10.911Z,28.70
2018-05-21T12:52:10.863Z,29.63